Time;durP1;ratioP1;P1;durP2;ratioP2;P2;SDS_P1;SDS_P2;PMS_P1;PMS_P2;Temp;Humidity;BMP_temperature;BMP_pressure;BME280_temperature;BME280_humidity;BME280_pressure;Samples;Min_cycle;Max_cycle;Signal;HPM_P1;HPM_P2
2022/05/04 00:00:09;;;;;;;12.03;10.87;;;10.60;99.90;;;;;;5060956;28;20232;-77
2022/05/04 00:02:42;;;;;;;10.93;10.03;;;10.60;99.90;;;;;;5056708;28;20201;-76
2022/05/04 00:05:10;;;;;;;10.87;10.07;;;10.60;99.90;;;;;;5061601;28;20209;-76
2022/05/04 00:07:37;;;;;;;11.17;10.27;;;10.60;99.90;;;;;;5054751;28;20203;-77
2022/05/04 00:10:05;;;;;;;11.07;10.17;;;10.60;99.90;;;;;;5056953;28;20233;-77
2022/05/04 00:12:34;;;;;;;11.03;10.13;;;10.70;99.90;;;;;;5068052;28;20199;-77
2022/05/04 00:15:02;;;;;;;11.13;10.20;;;10.70;99.90;;;;;;5060980;28;20205;-77
2022/05/04 00:17:29;;;;;;;11.40;10.50;;;10.70;99.90;;;;;;5069476;28;20713;-77
2022/05/04 00:19:56;;;;;;;11.97;10.97;;;10.70;99.90;;;;;;5059001;28;20590;-77
2022/05/04 00:22:24;;;;;;;13.33;12.13;;;10.70;99.90;;;;;;5062537;28;20212;-77
2022/05/04 00:24:51;;;;;;;12.57;11.57;;;10.70;99.90;;;;;;5061219;28;20588;-78
2022/05/04 00:27:18;;;;;;;11.90;10.90;;;10.70;99.90;;;;;;5062124;28;20200;-78
2022/05/04 00:29:47;;;;;;;12.00;11.00;;;10.60;99.90;;;;;;5066296;28;20348;-76
2022/05/04 00:32:15;;;;;;;12.40;11.27;;;10.60;99.90;;;;;;5052689;28;20199;-76
2022/05/04 00:34:42;;;;;;;11.43;10.53;;;10.60;99.90;;;;;;5056491;28;20680;-77
2022/05/04 00:37:09;;;;;;;12.03;11.03;;;10.60;99.90;;;;;;5040961;28;20672;-76
2022/05/04 00:39:37;;;;;;;10.30;9.40;;;10.60;99.90;;;;;;5049366;28;20209;-78
2022/05/04 00:42:09;;;;;;;11.40;10.30;;;10.60;99.90;;;;;;5064962;28;20273;-76
2022/05/04 00:44:36;;;;;;;7.43;6.73;;;10.60;99.90;;;;;;5068199;28;20623;-77
2022/05/04 00:47:04;;;;;;;8.40;6.67;;;10.50;99.90;;;;;;5086644;28;20190;-77
2022/05/04 00:49:31;;;;;;;7.90;7.10;;;10.40;99.90;;;;;;5085356;28;20217;-76
2022/05/04 00:51:59;;;;;;;7.90;6.90;;;10.40;99.90;;;;;;5085358;28;20254;-77
2022/05/04 00:54:27;;;;;;;10.73;9.83;;;10.40;99.90;;;;;;5084868;28;20828;-76
2022/05/04 00:56:55;;;;;;;12.00;11.07;;;10.30;99.90;;;;;;5086250;28;20237;-76
2022/05/04 00:59:21;;;;;;;9.07;7.67;;;10.20;99.90;;;;;;5084241;28;20575;-76
2022/05/04 01:01:48;;;;;;;9.83;6.57;;;10.20;99.90;;;;;;5081582;28;20178;-75
2022/05/04 01:04:18;;;;;;;6.83;6.13;;;10.20;99.90;;;;;;5064919;28;20191;-76
2022/05/04 01:06:46;;;;;;;8.97;7.63;;;10.20;99.90;;;;;;5064210;28;20559;-76
2022/05/04 01:09:13;;;;;;;8.00;6.83;;;10.20;99.90;;;;;;5064759;28;20249;-76
2022/05/04 01:11:40;;;;;;;8.30;7.17;;;10.20;99.90;;;;;;5084792;28;20206;-76
2022/05/04 01:14:09;;;;;;;12.73;11.53;;;10.20;99.90;;;;;;5078453;28;20669;-77
2022/05/04 01:16:37;;;;;;;8.77;7.97;;;10.30;99.90;;;;;;5064459;28;20198;-76
2022/05/04 01:19:04;;;;;;;9.00;8.20;;;10.20;99.90;;;;;;5063157;28;20210;-77
2022/05/04 01:21:33;;;;;;;11.87;10.77;;;10.30;99.90;;;;;;5066532;28;20190;-75
2022/05/04 01:24:02;;;;;;;11.60;10.60;;;10.20;99.90;;;;;;5060598;28;20256;-76
2022/05/04 01:26:29;;;;;;;12.17;11.07;;;10.20;99.90;;;;;;5067670;28;20208;-78
2022/05/04 01:28:56;;;;;;;12.07;10.97;;;10.10;99.90;;;;;;5064024;28;20298;-77
2022/05/04 01:31:24;;;;;;;9.33;8.43;;;10.10;99.90;;;;;;5054330;28;20222;-78
2022/05/04 01:33:51;;;;;;;10.93;9.93;;;10.20;99.90;;;;;;5059697;28;20199;-77
2022/05/04 01:36:18;;;;;;;11.90;10.80;;;10.20;99.90;;;;;;5062678;28;20198;-77
2022/05/04 01:38:45;;;;;;;10.50;9.37;;;10.20;99.90;;;;;;5056898;28;20198;-77
2022/05/04 01:43:55;;;;;;;13.60;12.50;;;10.30;99.90;;;;;;5060847;28;20300;-77
2022/05/04 01:46:22;;;;;;;11.33;9.20;;;10.30;99.90;;;;;;5062077;28;20210;-76
2022/05/04 01:48:49;;;;;;;13.40;12.20;;;10.30;99.90;;;;;;5064420;28;20582;-77
2022/05/04 01:51:16;;;;;;;12.90;11.70;;;10.30;99.90;;;;;;5055435;28;20226;-77
2022/05/04 01:53:46;;;;;;;13.10;11.80;;;10.30;99.90;;;;;;5066706;28;20198;-77
2022/05/04 01:56:14;;;;;;;13.43;12.30;;;10.30;99.90;;;;;;5062768;28;20288;-77
2022/05/04 01:58:41;;;;;;;13.53;12.43;;;10.30;99.90;;;;;;5066816;28;20205;-75
2022/05/04 02:01:09;;;;;;;13.03;11.93;;;10.30;99.90;;;;;;5126602;22;20225;-77
2022/05/04 02:03:36;;;;;;;12.50;11.50;;;10.40;99.90;;;;;;5101511;28;20194;-77
2022/05/04 02:06:03;;;;;;;14.27;12.87;;;10.30;99.90;;;;;;5104121;28;20204;-77
2022/05/04 02:08:30;;;;;;;15.27;13.97;;;10.30;99.90;;;;;;5100049;28;20194;-78
2022/05/04 02:10:58;;;;;;;14.07;12.97;;;10.40;99.90;;;;;;5097797;28;20237;-77
2022/05/04 02:13:26;;;;;;;14.10;13.00;;;10.40;99.90;;;;;;5100129;28;20233;-77
2022/05/04 02:15:53;;;;;;;14.90;13.60;;;10.30;99.90;;;;;;5095490;28;20197;-77
2022/05/04 02:18:20;;;;;;;13.60;12.40;;;10.40;99.90;;;;;;5095688;28;20207;-78
2022/05/04 02:20:47;;;;;;;13.67;12.57;;;10.30;99.90;;;;;;5098993;28;20225;-77
2022/05/04 02:23:14;;;;;;;13.20;11.90;;;10.30;99.90;;;;;;5088559;28;20208;-77
2022/05/04 02:25:41;;;;;;;13.27;12.17;;;10.30;99.90;;;;;;5106415;27;20193;-77
2022/05/04 02:28:08;;;;;;;13.33;12.33;;;10.40;99.90;;;;;;5096612;28;20289;-77
2022/05/04 02:30:36;;;;;;;12.70;11.70;;;10.40;99.90;;;;;;5100421;28;20209;-78
2022/05/04 02:33:03;;;;;;;12.50;11.60;;;10.40;99.90;;;;;;5096874;28;20194;-79
2022/05/04 02:38:15;;;;;;;11.60;10.70;;;10.40;99.90;;;;;;5103646;28;20203;-78
2022/05/04 02:40:42;;;;;;;11.67;10.87;;;10.50;99.90;;;;;;5092150;28;20217;-79
2022/05/04 02:43:09;;;;;;;11.53;10.63;;;10.50;99.90;;;;;;5094849;28;20202;-79
2022/05/04 02:45:37;;;;;;;11.47;10.47;;;10.50;99.90;;;;;;5095003;28;20268;-77
2022/05/04 02:48:04;;;;;;;11.17;10.27;;;10.60;99.90;;;;;;5089742;28;20193;-82
2022/05/04 02:50:31;;;;;;;11.00;10.10;;;10.60;99.90;;;;;;5093206;28;20308;-79
2022/05/04 02:52:58;;;;;;;11.03;10.23;;;10.70;99.90;;;;;;5094739;28;20195;-80
2022/05/04 02:55:25;;;;;;;11.07;10.27;;;10.60;99.90;;;;;;5099077;28;20198;-79
2022/05/04 02:57:52;;;;;;;11.23;10.33;;;10.60;99.90;;;;;;5097151;28;20201;-80
2022/05/04 03:00:20;;;;;;;11.77;10.97;;;10.70;99.90;;;;;;5095048;28;20713;-80
2022/05/04 03:02:47;;;;;;;12.23;11.33;;;10.70;99.90;;;;;;5094606;28;20667;-79
2022/05/04 03:05:17;;;;;;;12.27;11.37;;;10.70;99.90;;;;;;5090747;28;20202;-79
2022/05/04 03:07:44;;;;;;;11.70;10.80;;;10.60;99.90;;;;;;5101957;28;20221;-82
2022/05/04 03:10:13;;;;;;;12.30;11.30;;;10.60;99.90;;;;;;5101601;28;20214;-80
2022/05/04 03:12:40;;;;;;;13.23;12.20;;;10.60;99.90;;;;;;5105227;28;20295;-79
2022/05/04 03:15:09;;;;;;;13.17;11.97;;;10.60;99.90;;;;;;5097426;28;20200;-84
2022/05/04 03:17:36;;;;;;;13.00;12.00;;;10.50;99.90;;;;;;5094967;28;20197;-78
2022/05/04 03:20:06;;;;;;;13.43;12.33;;;10.50;99.90;;;;;;5103574;28;20990;-79
2022/05/04 03:22:33;;;;;;;13.93;12.73;;;10.50;99.90;;;;;;5104698;28;20217;-81
2022/05/04 03:25:00;;;;;;;13.30;12.30;;;10.50;99.90;;;;;;5105917;28;20296;-80
2022/05/04 03:27:27;;;;;;;13.40;12.33;;;10.50;99.90;;;;;;5102644;28;20295;-78
2022/05/04 03:29:55;;;;;;;12.93;11.93;;;10.50;99.90;;;;;;5100211;28;20255;-78
2022/05/04 03:32:22;;;;;;;13.80;12.70;;;10.50;99.90;;;;;;5101712;28;20574;-78
2022/05/04 03:34:49;;;;;;;13.00;12.00;;;10.50;99.90;;;;;;5104770;28;20204;-78
2022/05/04 03:37:18;;;;;;;12.80;11.90;;;10.50;99.90;;;;;;5103449;28;20569;-77
2022/05/04 03:39:45;;;;;;;14.10;12.90;;;10.50;99.90;;;;;;5102999;28;20213;-78
2022/05/04 03:42:13;;;;;;;13.00;12.00;;;10.50;99.90;;;;;;5081513;28;20253;-78
2022/05/04 03:44:40;;;;;;;14.43;13.23;;;10.50;99.90;;;;;;5107757;28;20204;-77
2022/05/04 03:47:10;;;;;;;13.70;12.60;;;10.50;99.90;;;;;;5100468;28;20229;-78
2022/05/04 03:49:37;;;;;;;13.97;12.87;;;10.50;99.90;;;;;;5091935;28;20244;-78
2022/05/04 03:52:05;;;;;;;14.47;13.27;;;10.50;99.90;;;;;;5104609;28;20214;-78
2022/05/04 03:54:33;;;;;;;13.43;12.43;;;10.50;99.90;;;;;;5106295;28;20637;-78
2022/05/04 03:57:00;;;;;;;14.27;13.00;;;10.40;99.90;;;;;;5103824;28;20269;-78
2022/05/04 03:59:27;;;;;;;14.60;13.20;;;10.40;99.90;;;;;;5103844;28;20254;-77
2022/05/04 04:01:54;;;;;;;13.83;12.67;;;10.50;99.90;;;;;;5101163;28;20264;-79
2022/05/04 04:04:21;;;;;;;12.90;11.90;;;10.50;99.90;;;;;;5104125;28;20193;-78
2022/05/04 04:06:48;;;;;;;14.50;13.10;;;10.50;99.90;;;;;;5106186;28;20266;-78
2022/05/04 04:09:15;;;;;;;13.07;12.07;;;10.50;99.90;;;;;;5107052;28;20197;-78
2022/05/04 04:11:44;;;;;;;13.60;12.50;;;10.50;99.90;;;;;;5110496;28;20677;-78
2022/05/04 04:14:10;;;;;;;14.00;12.90;;;10.50;99.90;;;;;;5107140;28;20224;-78
2022/05/04 04:16:37;;;;;;;12.87;11.87;;;10.50;99.90;;;;;;5107329;27;20288;-78
2022/05/04 04:19:04;;;;;;;14.13;12.83;;;10.50;99.90;;;;;;5110664;28;20268;-78
2022/05/04 04:24:15;;;;;;;12.90;12.00;;;10.60;99.90;;;;;;5112195;27;20212;-78
2022/05/04 04:26:44;;;;;;;13.37;12.37;;;10.60;99.90;;;;;;5111784;28;20205;-78
2022/05/04 04:29:11;;;;;;;13.60;12.50;;;10.60;99.90;;;;;;5113292;27;20202;-78
2022/05/04 04:31:38;;;;;;;14.07;13.07;;;10.70;99.90;;;;;;5102747;28;20225;-77
2022/05/04 04:34:06;;;;;;;6.60;5.97;;;10.70;99.90;;;;;;5114475;27;20197;-78
2022/05/04 04:36:33;;;;;;;7.30;5.83;;;10.70;99.90;;;;;;5109303;27;20196;-78
2022/05/04 04:38:59;;;;;;;6.50;5.90;;;10.80;99.90;;;;;;5111393;27;20195;-78
2022/05/04 04:41:26;;;;;;;6.67;5.93;;;10.80;99.90;;;;;;5114651;27;20232;-78
2022/05/04 04:43:55;;;;;;;6.23;5.63;;;10.80;99.90;;;;;;5107007;28;20205;-78
2022/05/04 04:46:22;;;;;;;6.17;5.07;;;10.90;99.90;;;;;;5107983;27;20211;-78
2022/05/04 04:48:50;;;;;;;7.50;6.80;;;10.90;99.90;;;;;;5102643;27;20292;-78
2022/05/04 04:51:17;;;;;;;9.10;8.30;;;11.00;99.90;;;;;;5099041;27;20329;-78
2022/05/04 04:53:44;;;;;;;8.07;7.37;;;11.00;99.90;;;;;;5110210;28;20293;-78
2022/05/04 04:56:11;;;;;;;7.77;7.07;;;11.00;99.90;;;;;;5110851;28;20221;-78
2022/05/04 04:58:38;;;;;;;7.60;6.73;;;11.10;99.90;;;;;;5117463;27;20186;-78
2022/05/04 05:01:06;;;;;;;9.23;8.40;;;11.10;99.90;;;;;;5115646;28;20206;-78
2022/05/04 05:03:33;;;;;;;7.30;6.60;;;11.10;99.90;;;;;;5112809;28;20198;-78
2022/05/04 05:06:00;;;;;;;5.80;5.30;;;11.10;99.90;;;;;;5107349;27;20714;-78
2022/05/04 05:08:27;;;;;;;5.63;5.13;;;11.20;99.90;;;;;;5102980;27;20237;-78
2022/05/04 05:10:54;;;;;;;8.63;7.93;;;11.20;99.90;;;;;;5105288;28;20222;-78
2022/05/04 05:13:21;;;;;;;8.67;7.87;;;11.20;99.90;;;;;;5127969;27;20186;-78
2022/05/04 05:18:33;;;;;;;8.70;7.90;;;11.30;99.90;;;;;;5113176;27;20191;-78
2022/05/04 05:21:01;;;;;;;7.17;6.30;;;11.40;99.90;;;;;;5107759;28;20264;-77
2022/05/04 05:23:27;;;;;;;7.70;7.00;;;11.50;99.90;;;;;;5110335;27;20209;-78
2022/05/04 05:25:54;;;;;;;6.47;5.70;;;11.70;99.90;;;;;;5107366;27;20211;-78
2022/05/04 05:28:21;;;;;;;8.03;7.23;;;11.90;99.90;;;;;;5103018;27;20295;-78
2022/05/04 05:30:48;;;;;;;7.40;6.27;;;12.00;99.90;;;;;;5110942;27;20215;-78
2022/05/04 05:33:15;;;;;;;7.10;6.40;;;12.30;99.90;;;;;;5113511;27;20223;-77
2022/05/04 05:35:44;;;;;;;8.53;7.60;;;12.40;99.90;;;;;;5104719;28;20195;-78
2022/05/04 05:38:11;;;;;;;6.53;6.03;;;12.50;99.90;;;;;;5100966;27;20202;-78
2022/05/04 05:40:38;;;;;;;7.00;6.10;;;12.50;99.90;;;;;;5081702;28;20214;-77
2022/05/04 05:43:05;;;;;;;8.03;7.33;;;12.60;99.90;;;;;;5101320;27;20208;-78
2022/05/04 05:45:32;;;;;;;9.23;8.43;;;12.70;99.90;;;;;;5108788;27;20431;-78
2022/05/04 05:47:59;;;;;;;9.00;8.20;;;12.70;99.90;;;;;;5110036;27;20210;-78
2022/05/04 05:50:26;;;;;;;10.90;9.90;;;12.70;99.90;;;;;;5106719;27;20310;-78
2022/05/04 05:52:54;;;;;;;11.47;10.47;;;12.70;99.90;;;;;;5113195;27;20227;-78
2022/05/04 05:55:21;;;;;;;10.50;9.60;;;12.70;99.90;;;;;;5111412;27;20290;-77
2022/05/04 05:57:48;;;;;;;9.33;8.40;;;12.60;99.90;;;;;;5112489;27;20210;-78
2022/05/04 06:00:16;;;;;;;10.17;9.20;;;12.60;99.90;;;;;;5112402;28;20247;-78
2022/05/04 06:02:45;;;;;;;9.20;8.40;;;12.50;99.90;;;;;;5105837;28;20304;-78
2022/05/04 06:05:12;;;;;;;10.63;9.63;;;12.50;99.90;;;;;;5107322;27;20307;-77
2022/05/04 06:07:39;;;;;;;9.57;8.73;;;12.60;99.90;;;;;;5101665;27;20207;-77
2022/05/04 06:10:09;;;;;;;10.27;9.47;;;12.60;99.90;;;;;;5100457;28;20226;-78
2022/05/04 06:12:38;;;;;;;11.87;10.87;;;12.70;99.90;;;;;;5118970;27;20215;-78
2022/05/04 06:15:07;;;;;;;10.87;10.07;;;12.80;99.90;;;;;;5109733;28;20189;-78
2022/05/04 06:17:34;;;;;;;9.93;9.20;;;12.90;99.90;;;;;;5128004;27;20219;-78
2022/05/04 06:20:01;;;;;;;9.57;8.77;;;13.00;99.90;;;;;;5105483;28;20715;-78
2022/05/04 06:22:28;;;;;;;9.90;9.10;;;13.10;99.90;;;;;;5108767;27;20269;-78
2022/05/04 06:24:55;;;;;;;9.50;8.70;;;13.20;99.90;;;;;;5106320;27;20196;-78
2022/05/04 06:27:23;;;;;;;9.07;8.30;;;13.30;99.90;;;;;;5108012;27;20193;-78
2022/05/04 06:35:19;;;;;;;9.80;8.90;;;14.00;99.90;;;;;;5110439;27;20201;-77
2022/05/04 06:37:46;;;;;;;10.37;9.57;;;14.30;99.90;;;;;;5102380;28;20201;-78
2022/05/04 06:40:13;;;;;;;8.47;7.77;;;14.50;99.90;;;;;;5101292;27;20230;-78
2022/05/04 06:42:41;;;;;;;8.33;7.63;;;14.80;99.90;;;;;;5104086;27;20221;-78
2022/05/04 06:45:09;;;;;;;9.20;8.50;;;15.00;99.90;;;;;;5108140;27;20579;-79
2022/05/04 06:47:37;;;;;;;10.47;9.67;;;15.10;99.90;;;;;;5106575;27;20291;-78
2022/05/04 06:50:04;;;;;;;8.57;7.33;;;15.10;99.90;;;;;;5103027;28;20270;-78
2022/05/04 06:52:32;;;;;;;6.30;5.70;;;15.10;99.90;;;;;;5117140;27;20220;-77
2022/05/04 06:54:59;;;;;;;8.83;8.10;;;15.30;99.90;;;;;;5103117;28;20195;-78
2022/05/04 06:57:26;;;;;;;8.27;7.53;;;15.20;99.90;;;;;;5103880;27;20681;-78
2022/05/04 06:59:54;;;;;;;8.80;8.00;;;15.00;99.90;;;;;;5100520;27;20318;-78
2022/05/04 07:02:21;;;;;;;8.73;7.80;;;14.90;99.90;;;;;;5096849;27;20620;-78
2022/05/04 07:04:48;;;;;;;7.17;6.47;;;14.80;99.90;;;;;;5103316;28;20202;-79
2022/05/04 07:07:15;;;;;;;8.60;7.80;;;14.80;99.90;;;;;;5112973;27;20199;-77
2022/05/04 07:09:42;;;;;;;8.30;7.50;;;14.70;99.90;;;;;;5116442;28;20591;-78
2022/05/04 07:12:09;;;;;;;9.03;8.17;;;14.70;99.90;;;;;;5104065;28;20215;-78
2022/05/04 07:14:36;;;;;;;8.60;7.70;;;14.70;99.90;;;;;;5103314;28;20282;-78
2022/05/04 07:17:05;;;;;;;8.40;7.60;;;14.80;99.90;;;;;;5129132;27;20200;-77
2022/05/04 07:19:32;;;;;;;10.43;8.10;;;14.80;99.90;;;;;;5098799;27;20245;-78
2022/05/04 07:21:59;;;;;;;8.80;8.10;;;15.00;99.90;;;;;;5100690;28;20630;-78
2022/05/04 07:24:26;;;;;;;9.53;8.67;;;15.00;99.90;;;;;;5115086;27;20207;-79
2022/05/04 07:26:53;;;;;;;9.07;8.33;;;15.20;99.90;;;;;;5114216;28;20288;-77
2022/05/04 07:29:20;;;;;;;8.00;6.90;;;15.30;99.90;;;;;;5111409;27;20206;-78
2022/05/04 07:31:47;;;;;;;10.13;9.13;;;15.30;99.90;;;;;;5109946;28;20245;-79
2022/05/04 07:34:17;;;;;;;8.77;7.87;;;15.40;99.90;;;;;;5102217;27;20220;-78
2022/05/04 07:36:45;;;;;;;7.77;7.07;;;15.60;99.90;;;;;;5108285;28;20287;-78
2022/05/04 07:42:21;;;;;;;10.77;9.83;;;15.80;99.90;;;;;;5110682;28;20633;-78
2022/05/04 07:44:45;;;;;;;7.03;6.33;;;16.20;99.90;;;;;;5106203;28;20208;-79
2022/05/04 07:47:13;;;;;;;7.03;6.33;;;16.60;99.90;;;;;;5099604;28;20613;-78
2022/05/04 07:49:41;;;;;;;7.83;7.23;;;16.90;99.90;;;;;;5094834;27;20234;-78
2022/05/04 07:52:08;;;;;;;7.73;6.97;;;17.60;99.90;;;;;;5110160;27;20239;-77
2022/05/04 07:54:35;;;;;;;8.80;8.13;;;18.40;99.90;;;;;;5106367;27;20684;-77
2022/05/04 07:57:02;;;;;;;5.80;5.07;;;19.30;99.90;;;;;;5106416;28;20369;-79
2022/05/04 08:04:47;;;;;;;9.17;8.37;;;20.10;99.90;;;;;;5059320;28;20210;-79
2022/05/04 08:07:14;;;;;;;10.13;9.33;;;20.10;99.90;;;;;;5031639;28;20207;-79
2022/05/04 08:09:41;;;;;;;9.23;8.53;;;19.80;99.90;;;;;;5045826;28;20207;-79
2022/05/04 08:12:11;;;;;;;9.30;8.50;;;19.70;99.90;;;;;;5040950;28;20290;-80
2022/05/04 08:14:39;;;;;;;8.53;7.73;;;19.50;99.90;;;;;;5041384;28;20196;-80
2022/05/04 08:17:07;;;;;;;8.07;7.33;;;19.70;99.90;;;;;;5037547;28;20571;-79
2022/05/04 08:19:34;;;;;;;9.17;8.40;;;19.60;99.90;;;;;;5045228;28;20297;-80
2022/05/04 08:22:02;;;;;;;9.97;9.17;;;19.70;99.90;;;;;;5028922;28;20305;-79
2022/05/04 08:24:29;;;;;;;10.00;9.27;;;19.50;99.90;;;;;;5036280;28;20196;-80
2022/05/04 08:26:56;;;;;;;11.23;10.27;;;19.30;99.90;;;;;;5030743;28;20219;-79
2022/05/04 08:29:24;;;;;;;11.17;10.17;;;19.20;99.90;;;;;;5035046;28;20207;-80
2022/05/04 08:31:51;;;;;;;10.90;10.10;;;19.40;99.90;;;;;;5054510;28;20691;-79
2022/05/04 08:34:18;;;;;;;9.80;9.20;;;19.50;99.90;;;;;;5059304;28;20206;-79
2022/05/04 08:36:45;;;;;;;10.13;9.23;;;19.80;99.90;;;;;;5038134;28;20205;-80
2022/05/04 08:39:13;;;;;;;12.13;8.77;;;20.30;99.90;;;;;;5040525;28;20206;-81
2022/05/04 08:41:41;;;;;;;10.07;9.17;;;20.80;99.90;;;;;;5031471;28;20226;-79
2022/05/04 08:44:10;;;;;;;5.87;5.27;;;21.40;99.90;;;;;;5056908;28;20704;-79
2022/05/04 08:46:40;;;;;;;9.00;8.20;;;21.90;99.90;;;;;;5055696;28;20203;-79
2022/05/04 08:49:08;;;;;;;7.53;6.77;;;22.30;99.90;;;;;;5033874;28;20213;-80
2022/05/04 08:51:37;;;;;;;7.07;6.47;;;21.70;99.90;;;;;;5033192;28;20220;-80
2022/05/04 08:54:05;;;;;;;5.13;4.47;;;21.20;99.90;;;;;;5025165;28;20235;-80
2022/05/04 08:56:34;;;;;;;8.23;7.53;;;20.70;99.90;;;;;;5029549;28;20195;-80
2022/05/04 08:59:02;;;;;;;4.67;4.20;;;20.60;99.90;;;;;;5029696;28;20200;-79
2022/05/04 09:01:29;;;;;;;5.67;5.07;;;20.40;99.90;;;;;;5035893;28;20211;-80
2022/05/04 09:03:59;;;;;;;9.53;8.83;;;20.20;99.90;;;;;;5036275;28;20198;-78
2022/05/04 09:06:27;;;;;;;10.73;9.83;;;19.90;99.90;;;;;;5069984;28;20207;-80
2022/05/04 09:08:56;;;;;;;10.53;9.73;;;19.60;99.90;;;;;;5052983;28;20207;-79
2022/05/04 09:11:24;;;;;;;5.70;4.77;;;19.20;99.90;;;;;;5046991;28;20592;-79
2022/05/04 09:13:52;;;;;;;4.73;4.10;;;19.10;99.90;;;;;;5052766;28;20218;-79
2022/05/04 09:16:30;;;;;;;6.70;4.47;;;19.40;99.90;;;;;;5044488;28;20229;-79
2022/05/04 09:18:59;;;;;;;6.43;4.00;;;19.70;99.90;;;;;;5047443;28;20202;-79
2022/05/04 09:21:27;;;;;;;4.83;4.20;;;20.60;99.90;;;;;;5038368;28;20238;-79
2022/05/04 09:23:54;;;;;;;6.13;4.30;;;21.00;99.90;;;;;;5052683;28;20195;-80
2022/05/04 09:26:22;;;;;;;6.13;5.53;;;21.40;99.90;;;;;;5052807;28;20627;-79
2022/05/04 09:29:01;;;;;;;5.40;4.93;;;22.00;99.90;;;;;;5052669;28;20195;-81
2022/05/04 09:31:31;;;;;;;7.00;6.37;;;22.10;99.90;;;;;;5044063;28;20266;-80
2022/05/04 09:33:59;;;;;;;8.80;8.30;;;22.50;99.90;;;;;;5044266;28;20220;-80
2022/05/04 09:36:34;;;;;;;6.50;3.53;;;22.70;99.90;;;;;;5049611;28;20202;-79
2022/05/04 09:44:57;;;;;;;3.20;2.90;;;22.40;99.90;;;;;;5046319;28;20192;-80
2022/05/04 09:47:24;;;;;;;4.73;3.30;;;22.50;99.90;;;;;;5042621;28;20676;-78
2022/05/04 09:50:01;;;;;;;7.23;6.60;;;22.10;99.90;;;;;;5046536;28;20200;-80
2022/05/04 09:52:28;;;;;;;5.10;4.60;;;22.40;99.90;;;;;;5042423;28;20215;-79
2022/05/04 09:54:58;;;;;;;3.10;2.90;;;22.40;99.90;;;;;;5039149;28;20645;-79
2022/05/04 09:57:26;;;;;;;4.13;3.17;;;22.10;99.90;;;;;;5042426;28;20200;-79
2022/05/04 09:59:55;;;;;;;4.37;3.13;;;21.30;99.90;;;;;;5042699;28;20235;-79
2022/05/04 10:02:22;;;;;;;4.67;4.27;;;20.80;99.90;;;;;;5061472;28;20195;-79
2022/05/04 10:04:49;;;;;;;4.20;3.17;;;20.40;99.90;;;;;;5063750;28;20207;-79
2022/05/04 10:07:16;;;;;;;7.30;6.80;;;20.30;99.90;;;;;;5057331;28;20204;-79
2022/05/04 10:09:43;;;;;;;7.60;7.20;;;20.10;99.90;;;;;;5063392;28;20647;-79
2022/05/04 10:12:11;;;;;;;6.60;6.10;;;19.90;99.90;;;;;;5056322;28;20227;-80
2022/05/04 10:14:40;;;;;;;7.67;7.17;;;19.80;99.90;;;;;;5084154;28;20210;-78
2022/05/04 10:17:14;;;;;;;7.80;7.30;;;19.70;99.90;;;;;;5056003;28;20203;-79
2022/05/04 10:19:47;;;;;;;2.77;2.57;;;19.80;99.90;;;;;;5080875;28;20198;-80
2022/05/04 10:22:20;;;;;;;8.40;7.90;;;20.00;99.90;;;;;;5071422;28;20198;-79
2022/05/04 10:24:47;;;;;;;3.07;2.70;;;19.90;99.90;;;;;;5071528;28;20280;-78
2022/05/04 10:27:20;;;;;;;4.53;3.03;;;19.80;99.90;;;;;;5063284;28;20236;-80
2022/05/04 10:32:46;;;;;;;3.33;2.60;;;19.90;99.90;;;;;;5087478;28;20363;-79
2022/05/04 10:35:15;;;;;;;4.23;2.63;;;20.00;99.90;;;;;;5070857;28;20727;-79
2022/05/04 10:38:04;;;;;;;2.87;2.60;;;20.10;99.90;;;;;;5071728;28;20209;-80
2022/05/04 10:40:33;;;;;;;2.50;2.30;;;20.10;99.90;;;;;;5071234;28;20249;-79
2022/05/04 10:43:02;;;;;;;2.80;2.60;;;20.10;99.90;;;;;;5064295;28;20843;-79
2022/05/04 10:45:33;;;;;;;2.80;2.60;;;20.20;99.90;;;;;;5078398;28;20719;-80
2022/05/04 10:48:28;;;;;;;2.47;2.37;;;20.40;99.90;;;;;;5070999;28;20198;-79
2022/05/04 10:50:58;;;;;;;2.70;2.53;;;20.50;99.90;;;;;;5065217;28;20214;-79
2022/05/04 10:53:40;;;;;;;6.63;6.23;;;20.60;99.90;;;;;;5068921;28;20271;-80
2022/05/04 10:56:09;;;;;;;4.67;3.47;;;20.40;99.90;;;;;;5059687;28;20668;-79
2022/05/04 10:58:38;;;;;;;4.33;2.77;;;20.30;99.90;;;;;;5063029;28;20194;-79
2022/05/04 11:01:13;;;;;;;4.33;3.00;;;20.10;99.90;;;;;;5070390;28;20233;-79
2022/05/04 11:03:55;;;;;;;3.23;2.93;;;19.80;99.90;;;;;;5079897;28;20284;-80
2022/05/04 11:06:29;;;;;;;3.73;3.10;;;19.70;99.90;;;;;;5070653;28;20666;-79
2022/05/04 11:08:59;;;;;;;4.43;3.40;;;19.80;99.90;;;;;;5065402;28;20199;-77
2022/05/04 11:11:27;;;;;;;4.20;3.13;;;19.80;99.90;;;;;;5070320;28;20281;-79
2022/05/04 11:13:55;;;;;;;6.70;3.60;;;19.90;99.90;;;;;;5070512;28;20224;-80
2022/05/04 11:16:23;;;;;;;2.90;2.70;;;19.80;99.90;;;;;;5069389;28;20664;-80
2022/05/04 11:18:51;;;;;;;2.83;2.60;;;19.80;99.90;;;;;;5065220;28;20242;-79
2022/05/04 11:21:20;;;;;;;3.47;2.80;;;20.10;99.90;;;;;;5084673;28;20238;-79
2022/05/04 11:23:48;;;;;;;3.30;3.00;;;20.10;99.90;;;;;;5070715;28;20199;-80
2022/05/04 11:26:20;;;;;;;3.10;2.80;;;19.90;99.90;;;;;;5061863;28;20285;-79
2022/05/04 11:28:48;;;;;;;3.83;3.00;;;20.10;99.90;;;;;;5062208;28;20226;-79
2022/05/04 11:31:15;;;;;;;5.40;3.00;;;20.20;99.90;;;;;;5062183;28;20218;-80
2022/05/04 11:33:43;;;;;;;3.27;2.70;;;20.30;99.90;;;;;;5070327;28;20582;-79
2022/05/04 11:36:12;;;;;;;4.50;3.33;;;20.50;99.90;;;;;;5070005;28;20651;-79
2022/05/04 11:38:40;;;;;;;3.40;3.10;;;20.60;99.90;;;;;;5070210;28;20202;-79
2022/05/04 11:41:08;;;;;;;4.03;3.73;;;20.40;99.90;;;;;;5062530;28;20311;-79
2022/05/04 11:43:36;;;;;;;5.93;5.43;;;20.50;99.90;;;;;;5066697;28;20195;-79
2022/05/04 11:46:06;;;;;;;3.47;3.17;;;20.60;99.90;;;;;;5065910;28;20277;-79
2022/05/04 11:48:35;;;;;;;7.60;6.90;;;20.80;99.90;;;;;;5062067;28;20198;-80
2022/05/04 11:51:02;;;;;;;8.13;7.53;;;20.90;99.90;;;;;;5061775;28;20215;-79
2022/05/04 11:53:31;;;;;;;7.23;5.37;;;21.00;99.90;;;;;;5061867;28;20305;-79
2022/05/04 11:55:59;;;;;;;5.80;5.30;;;21.00;99.90;;;;;;5065081;28;20205;-79
2022/05/04 11:58:27;;;;;;;5.77;5.27;;;20.90;99.90;;;;;;5070061;28;20252;-79
2022/05/04 12:00:55;;;;;;;6.90;5.63;;;20.90;99.90;;;;;;5070008;28;20230;-79
2022/05/04 12:03:23;;;;;;;5.93;5.40;;;20.90;99.90;;;;;;5061780;28;20253;-79
2022/05/04 12:05:51;;;;;;;6.33;4.97;;;20.80;99.90;;;;;;5070313;28;20210;-79
2022/05/04 12:08:19;;;;;;;6.10;5.50;;;20.70;99.90;;;;;;5069366;28;20230;-80
2022/05/04 12:10:48;;;;;;;5.10;4.70;;;20.50;99.90;;;;;;5063074;28;20229;-81
2022/05/04 12:13:16;;;;;;;6.00;5.40;;;20.50;99.90;;;;;;5061199;28;20209;-78
2022/05/04 12:15:44;;;;;;;7.40;6.90;;;20.20;99.90;;;;;;5062958;28;20305;-79
2022/05/04 12:18:13;;;;;;;8.37;7.57;;;19.90;99.90;;;;;;5061707;28;20199;-79
2022/05/04 12:20:43;;;;;;;8.43;7.63;;;19.60;99.90;;;;;;5056906;28;20682;-79
2022/05/04 12:23:11;;;;;;;7.90;7.27;;;19.30;99.90;;;;;;5058496;28;20198;-79
2022/05/04 12:25:40;;;;;;;5.07;4.63;;;19.00;99.90;;;;;;5078645;28;20699;-79
2022/05/04 12:28:09;;;;;;;4.00;3.67;;;18.80;99.90;;;;;;5066500;28;20663;-78
2022/05/04 12:33:30;;;;;;;8.87;8.27;;;18.20;99.90;;;;;;5085227;28;20728;-79
2022/05/04 12:35:59;;;;;;;3.63;3.27;;;17.80;99.90;;;;;;5071078;28;20199;-79
2022/05/04 12:38:27;;;;;;;9.20;8.40;;;17.20;99.90;;;;;;5063212;28;20681;-79
2022/05/04 12:40:54;;;;;;;9.37;8.57;;;16.70;99.90;;;;;;5067394;28;20734;-79
2022/05/04 12:43:24;;;;;;;8.40;7.90;;;16.40;99.90;;;;;;5065150;28;20667;-79
2022/05/04 12:45:55;;;;;;;6.50;6.00;;;16.20;99.90;;;;;;5073365;28;20198;-79
2022/05/04 12:48:26;;;;;;;8.67;8.07;;;16.00;99.90;;;;;;5073290;28;20300;-79
2022/05/04 12:50:54;;;;;;;5.57;5.17;;;15.90;99.90;;;;;;5066950;28;20769;-79
2022/05/04 12:53:21;;;;;;;9.10;8.40;;;15.80;99.90;;;;;;5071580;28;20585;-78
2022/05/04 12:58:33;;;;;;;10.63;9.73;;;15.60;99.90;;;;;;5089656;28;20288;-79
2022/05/04 13:01:00;;;;;;;8.73;5.80;;;15.60;99.90;;;;;;5072792;28;20226;-79
2022/05/04 13:03:27;;;;;;;6.80;6.07;;;15.50;99.90;;;;;;5070848;28;20280;-79
2022/05/04 13:05:54;;;;;;;7.63;6.90;;;15.50;99.90;;;;;;5067233;28;20217;-78
2022/05/04 13:08:21;;;;;;;8.33;7.57;;;15.50;99.90;;;;;;5064599;28;20202;-79
2022/05/04 13:10:49;;;;;;;8.27;7.47;;;15.40;99.90;;;;;;5072640;28;20224;-79
2022/05/04 13:13:19;;;;;;;9.27;7.73;;;15.40;99.90;;;;;;5073243;28;20195;-79
2022/05/04 13:15:48;;;;;;;8.37;7.67;;;15.40;99.90;;;;;;5064916;28;20214;-79
2022/05/04 13:18:15;;;;;;;10.10;9.30;;;15.40;99.90;;;;;;5064583;28;20202;-79
2022/05/04 13:20:43;;;;;;;6.17;5.57;;;15.40;99.90;;;;;;5064519;28;20221;-79
2022/05/04 13:23:10;;;;;;;6.40;5.73;;;15.50;99.90;;;;;;5064792;28;20602;-79